Hlavní strana
METAR-TAF:

METAR-TAF

Letiště :

Tartu, Estonsko

zeměpisná šířka: 58-18N, zeměpisná délka: 026-44E, výška: 59 m

Aktuální stav počasí

Zpráva byla vytvořena před 19 minutami, v 18:50 UTC
Západní vítr 10 kt
Teplota 13°C
Vlhkost vzduchu 67%
Tlak 1015 hPa
Viditelnost 10 km a více

METAR: EETU 181850Z AUTO 27010KT 9999 BKN025/// OVC047/// 13/07 Q1015

Čas: 22:09 (19:09 UTC)

Předpověď počasí

Zpráva byla vytvořena před 23 hodinami a 9 minutami, v 20:00 UTC
Předpověď platná od 17 v 21 UTC do 18 v 03 UTC
Jihozápadní vítr 6 kt
Viditelnost 10 km a více
Žádná oblačnost pod 1500 m, nevyskytují se cumulonimby.
Pravděpodobnost 40% :
Dočasný
od 17 v 21 UTC do 17 v 23 UTC
Viditelnost: 2000 m
Oblačno až skoro zataženo ve výšce 400 ft
kouřmo
Dočasný
od 17 v 23 UTC do 18 v 03 UTC
Viditelnost: 0500 m
ve výšce 100 ft
mlha

TAF: EETU 172000Z 1721/1803 23006KT CAVOK PROB40 TEMPO 1721/1723 2000 BR BKN004 TEMPO 1723/1803 0500 FG VV001

Stav a předpovědi počasí z více než 4 000 letišť (zprávy METAR a TAF).

Červené a žluté tečky na mapě představují dostupné meteorologické stanice.

Když kurzor umístíte na tečku, zobrazí se název stanice.

Pak kliknutím zobrazíte stav a předpověď počasí.

Chcete-li změnit mapu, kliknutím na zelené tlačítko se znaménkem +mapu přiblížíte, kliknutím na zelené tlačítko se znaménkem – mapu oddálíte a kliknutím na zelené šipky přejdete na sousední mapy.


METAR-TAF: